Time;durP1;ratioP1;P1;durP2;ratioP2;P2;SDS_P1;SDS_P2;PMS_P1;PMS_P2;Temp;Humidity;BMP_temperature;BMP_pressure;BME280_temperature;BME280_humidity;BME280_pressure;Samples;Min_cycle;Max_cycle;Signal;HPM_P1;HPM_P2
2021/07/22 00:00:22;;;;;;;31.27;29.20;;;19.30;75.10;;;;;;5057299;28;20458;-69
2021/07/22 00:02:49;;;;;;;32.30;30.20;;;19.30;75.10;;;;;;5042455;28;20468;-68
2021/07/22 00:05:17;;;;;;;30.80;28.90;;;19.30;74.90;;;;;;5061446;28;20475;-68
2021/07/22 00:07:47;;;;;;;31.90;29.70;;;19.20;75.20;;;;;;5032176;28;20501;-68
2021/07/22 00:10:15;;;;;;;31.27;29.20;;;19.10;75.50;;;;;;5045367;28;20455;-70
2021/07/22 00:12:42;;;;;;;31.27;29.37;;;19.00;75.70;;;;;;5047071;28;20996;-70
2021/07/22 00:15:09;;;;;;;33.13;30.90;;;19.00;75.70;;;;;;5038695;28;20483;-70
2021/07/22 00:17:37;;;;;;;31.00;29.10;;;19.00;75.80;;;;;;5048188;28;21084;-70
2021/07/22 00:20:06;;;;;;;32.30;30.20;;;19.00;76.10;;;;;;5054058;28;20847;-68
2021/07/22 00:22:36;;;;;;;32.27;30.37;;;19.00;75.90;;;;;;5032649;28;20550;-68
2021/07/22 00:25:05;;;;;;;31.60;29.10;;;19.00;75.90;;;;;;5050387;28;20466;-68
2021/07/22 00:27:32;;;;;;;32.03;30.03;;;19.00;76.10;;;;;;5044919;28;20485;-68
2021/07/22 00:29:59;;;;;;;33.17;31.07;;;18.90;76.30;;;;;;5050619;28;20455;-68
2021/07/22 00:32:26;;;;;;;32.00;29.70;;;18.80;76.60;;;;;;5049177;28;20473;-68
2021/07/22 00:34:53;;;;;;;32.30;30.20;;;18.70;76.70;;;;;;5051348;28;20547;-68
2021/07/22 00:37:19;;;;;;;32.70;30.60;;;18.70;77.10;;;;;;5048814;28;20439;-68
2021/07/22 00:39:46;;;;;;;32.13;30.10;;;18.70;77.10;;;;;;5036716;28;20451;-68
2021/07/22 00:42:15;;;;;;;32.27;30.20;;;18.60;77.20;;;;;;5050571;28;20541;-68
2021/07/22 00:44:41;;;;;;;31.20;29.23;;;18.70;77.10;;;;;;5036399;28;20457;-68
2021/07/22 00:47:08;;;;;;;32.03;29.90;;;18.70;77.00;;;;;;5059737;28;20477;-68
2021/07/22 00:49:35;;;;;;;32.40;30.23;;;18.60;77.10;;;;;;5039996;28;20543;-68
2021/07/22 00:52:02;;;;;;;31.30;29.23;;;18.60;77.30;;;;;;5041258;28;20487;-68
2021/07/22 00:54:32;;;;;;;31.60;29.60;;;18.50;77.40;;;;;;5045727;28;20908;-68
2021/07/22 00:56:59;;;;;;;33.33;30.93;;;18.50;77.50;;;;;;5048471;28;20497;-68
2021/07/22 00:59:27;;;;;;;31.20;29.10;;;18.50;77.60;;;;;;5048391;28;20549;-68
2021/07/22 01:01:54;;;;;;;30.20;28.40;;;18.40;77.80;;;;;;5038699;28;20459;-68
2021/07/22 01:04:21;;;;;;;31.63;29.63;;;18.50;77.50;;;;;;5040572;28;20459;-68
2021/07/22 01:06:48;;;;;;;32.30;29.87;;;18.40;77.50;;;;;;5041925;28;21158;-68
2021/07/22 01:09:15;;;;;;;32.73;30.47;;;18.40;77.80;;;;;;5044493;28;20461;-68
2021/07/22 01:11:41;;;;;;;32.40;30.30;;;18.40;77.90;;;;;;5047955;28;20459;-68
2021/07/22 01:14:08;;;;;;;30.50;28.50;;;18.30;78.10;;;;;;5047337;28;20546;-68
2021/07/22 01:16:37;;;;;;;31.07;29.07;;;18.30;78.10;;;;;;5042809;28;20476;-70
2021/07/22 01:19:04;;;;;;;32.87;30.57;;;18.30;78.00;;;;;;5041895;28;20475;-70
2021/07/22 01:21:33;;;;;;;32.40;30.40;;;18.20;78.40;;;;;;5043236;28;20463;-70
2021/07/22 01:24:00;;;;;;;32.70;30.60;;;18.20;78.80;;;;;;5046306;28;20465;-70
2021/07/22 01:26:27;;;;;;;31.20;29.30;;;18.10;78.80;;;;;;5055117;28;20840;-70
2021/07/22 01:28:54;;;;;;;31.23;29.13;;;18.10;78.80;;;;;;5046967;28;20580;-71
2021/07/22 01:31:24;;;;;;;32.03;29.83;;;18.00;79.00;;;;;;5049787;28;20454;-70
2021/07/22 01:33:52;;;;;;;32.23;29.93;;;17.90;79.30;;;;;;5050590;28;20474;-68
2021/07/22 01:36:22;;;;;;;30.50;28.60;;;17.90;79.40;;;;;;5049444;28;20503;-68
2021/07/22 01:38:51;;;;;;;30.93;29.03;;;17.90;79.40;;;;;;5048547;28;20457;-68
2021/07/22 01:41:18;;;;;;;31.97;29.83;;;17.90;79.50;;;;;;5043747;28;20503;-68
2021/07/22 01:43:45;;;;;;;31.10;29.10;;;17.90;79.40;;;;;;5046709;28;20963;-68
2021/07/22 01:46:12;;;;;;;32.20;30.20;;;17.80;79.50;;;;;;5045138;28;20475;-68
2021/07/22 01:48:39;;;;;;;32.20;30.20;;;17.80;79.60;;;;;;5038477;28;20480;-68
2021/07/22 01:51:06;;;;;;;30.93;29.03;;;17.80;79.40;;;;;;5045884;28;20485;-68
2021/07/22 01:53:33;;;;;;;32.40;30.30;;;17.80;79.60;;;;;;5051244;28;20997;-68
2021/07/22 01:56:04;;;;;;;32.20;30.30;;;17.80;79.50;;;;;;5050770;28;20489;-68
2021/07/22 01:58:31;;;;;;;30.93;28.93;;;17.80;79.40;;;;;;5038291;28;20471;-68
2021/07/22 02:00:58;;;;;;;31.40;29.50;;;17.80;79.50;;;;;;5044052;28;20462;-70
2021/07/22 02:03:25;;;;;;;31.00;28.93;;;17.70;79.80;;;;;;5045374;28;20463;-70
2021/07/22 02:05:51;;;;;;;31.20;29.30;;;17.70;80.00;;;;;;5052974;28;20479;-70
2021/07/22 02:08:18;;;;;;;31.50;29.40;;;17.60;80.00;;;;;;5046043;28;20513;-70
2021/07/22 02:10:45;;;;;;;31.40;29.30;;;17.60;80.10;;;;;;5048202;28;20509;-71
2021/07/22 02:13:13;;;;;;;32.13;29.90;;;17.60;79.90;;;;;;5041821;28;20451;-70
2021/07/22 02:15:40;;;;;;;31.40;29.50;;;17.40;80.60;;;;;;5046523;28;20489;-70
2021/07/22 02:18:07;;;;;;;31.30;29.40;;;17.40;80.80;;;;;;5053033;28;20457;-70
2021/07/22 02:20:34;;;;;;;31.97;29.73;;;17.40;80.90;;;;;;5043006;28;20951;-70
2021/07/22 02:23:01;;;;;;;32.07;30.00;;;17.50;80.80;;;;;;5035148;28;20451;-70
2021/07/22 02:25:28;;;;;;;31.93;29.50;;;17.40;80.80;;;;;;5048040;28;20480;-70
2021/07/22 02:27:54;;;;;;;30.93;29.03;;;17.30;80.90;;;;;;5038850;28;21163;-70
2021/07/22 02:30:23;;;;;;;31.37;29.47;;;17.30;80.90;;;;;;5045478;28;20456;-70
2021/07/22 02:32:49;;;;;;;32.73;30.60;;;17.30;80.80;;;;;;5047591;28;20455;-70
2021/07/22 02:35:16;;;;;;;31.10;29.20;;;17.30;80.90;;;;;;5039166;28;20479;-70
2021/07/22 02:37:43;;;;;;;31.60;29.70;;;17.20;81.00;;;;;;5044620;28;20461;-70
2021/07/22 02:40:10;;;;;;;31.60;29.47;;;17.20;81.10;;;;;;5052707;28;20790;-70
2021/07/22 02:42:37;;;;;;;30.23;28.33;;;17.30;81.00;;;;;;5043686;28;20463;-70
2021/07/22 02:45:05;;;;;;;30.10;28.30;;;17.30;80.70;;;;;;5045639;28;20543;-70
2021/07/22 02:47:33;;;;;;;30.20;28.40;;;17.30;80.70;;;;;;5052296;28;20479;-70
2021/07/22 02:50:00;;;;;;;34.13;31.90;;;17.20;81.00;;;;;;5042203;28;20447;-70
2021/07/22 02:52:27;;;;;;;31.37;29.23;;;17.20;81.10;;;;;;5041572;28;20973;-70
2021/07/22 02:54:54;;;;;;;31.60;29.50;;;17.10;81.30;;;;;;5049591;28;20454;-70
2021/07/22 02:57:20;;;;;;;32.87;30.53;;;17.20;81.30;;;;;;5045815;28;20458;-70
2021/07/22 02:59:47;;;;;;;35.20;32.77;;;17.00;81.70;;;;;;5055421;28;20486;-70
2021/07/22 03:02:14;;;;;;;32.87;30.73;;;17.00;81.80;;;;;;5051490;28;20461;-70
2021/07/22 03:04:42;;;;;;;32.77;30.77;;;17.00;81.70;;;;;;5050901;28;20467;-69
2021/07/22 03:07:09;;;;;;;32.47;30.30;;;17.00;81.80;;;;;;5048040;28;20481;-70
2021/07/22 03:09:36;;;;;;;32.70;30.40;;;17.00;81.90;;;;;;5050344;28;20592;-70
2021/07/22 03:12:03;;;;;;;35.70;33.30;;;17.00;81.80;;;;;;5049706;28;20478;-70
2021/07/22 03:14:30;;;;;;;32.03;29.93;;;17.00;81.80;;;;;;5050235;28;20469;-69
2021/07/22 03:16:57;;;;;;;31.50;29.40;;;17.00;81.80;;;;;;5050230;28;20493;-70
2021/07/22 03:19:23;;;;;;;33.70;31.60;;;17.00;81.90;;;;;;5048881;28;21227;-69
2021/07/22 03:21:52;;;;;;;35.33;33.03;;;16.90;81.80;;;;;;5049325;28;20451;-70
2021/07/22 03:24:18;;;;;;;32.40;30.10;;;16.80;82.20;;;;;;5048424;28;20470;-70
2021/07/22 03:26:45;;;;;;;37.10;34.70;;;16.70;82.60;;;;;;5056703;28;20501;-69
2021/07/22 03:29:12;;;;;;;32.77;30.67;;;16.70;82.90;;;;;;5052241;28;20856;-70
2021/07/22 03:31:39;;;;;;;32.03;30.10;;;16.70;82.80;;;;;;5047845;28;20458;-69
2021/07/22 03:34:06;;;;;;;32.73;30.70;;;16.70;82.70;;;;;;5047223;28;20463;-70
2021/07/22 03:36:33;;;;;;;33.17;31.07;;;16.70;82.80;;;;;;5043349;28;20475;-69
2021/07/22 03:39:01;;;;;;;33.27;31.07;;;16.70;82.70;;;;;;5049700;28;20458;-69
2021/07/22 03:41:28;;;;;;;39.07;36.50;;;16.60;82.80;;;;;;5054129;28;20805;-70
2021/07/22 03:43:55;;;;;;;31.70;29.70;;;16.60;83.00;;;;;;5045579;28;20850;-70
2021/07/22 03:46:22;;;;;;;33.73;31.23;;;16.60;83.20;;;;;;5038725;28;20470;-70
2021/07/22 03:48:49;;;;;;;38.43;35.40;;;16.60;83.20;;;;;;5044457;28;20484;-70
2021/07/22 03:51:16;;;;;;;32.73;30.43;;;16.60;83.10;;;;;;5044596;28;20463;-70
2021/07/22 03:53:43;;;;;;;32.77;30.67;;;16.60;83.10;;;;;;5051556;28;20547;-69
2021/07/22 03:56:11;;;;;;;31.67;29.53;;;16.50;83.10;;;;;;5050275;28;20820;-70
2021/07/22 03:58:38;;;;;;;33.23;31.13;;;16.60;83.20;;;;;;5048726;28;20451;-70
2021/07/22 04:01:06;;;;;;;33.63;31.50;;;16.60;83.30;;;;;;5050699;28;20463;-70
2021/07/22 04:03:35;;;;;;;37.03;34.63;;;16.60;83.40;;;;;;5046785;28;20460;-70
2021/07/22 04:06:03;;;;;;;32.70;30.50;;;16.60;83.10;;;;;;5050266;28;20494;-70
2021/07/22 04:08:30;;;;;;;31.07;28.97;;;16.60;83.20;;;;;;5047140;28;20477;-70
2021/07/22 04:10:57;;;;;;;32.50;30.30;;;16.60;83.00;;;;;;5047254;28;20459;-70
2021/07/22 04:13:25;;;;;;;36.60;34.30;;;16.70;82.90;;;;;;5044739;28;20467;-70
2021/07/22 04:15:52;;;;;;;39.10;36.40;;;16.80;82.90;;;;;;5043849;28;20999;-70
2021/07/22 04:18:18;;;;;;;36.83;33.90;;;16.90;82.60;;;;;;5046811;28;20460;-70
2021/07/22 04:20:45;;;;;;;32.33;30.20;;;16.90;82.20;;;;;;5050502;28;20458;-70
2021/07/22 04:23:12;;;;;;;36.13;33.93;;;16.90;81.90;;;;;;5048242;28;20463;-70
2021/07/22 04:25:39;;;;;;;32.27;30.07;;;17.00;81.60;;;;;;5049092;28;20484;-70
2021/07/22 04:28:06;;;;;;;35.50;33.00;;;17.10;81.40;;;;;;5045993;28;20472;-70
2021/07/22 04:30:34;;;;;;;35.10;33.00;;;17.10;81.20;;;;;;5047206;28;20461;-70
2021/07/22 04:33:01;;;;;;;34.13;31.87;;;17.10;81.20;;;;;;5037626;28;20465;-70
2021/07/22 04:35:28;;;;;;;32.30;30.20;;;17.10;81.30;;;;;;5050473;28;20515;-70
2021/07/22 04:37:55;;;;;;;32.73;30.73;;;17.10;81.40;;;;;;5042037;28;20471;-70
2021/07/22 04:40:22;;;;;;;34.37;31.87;;;17.10;81.30;;;;;;5049886;28;20459;-72
2021/07/22 04:42:49;;;;;;;36.33;34.03;;;17.20;81.10;;;;;;5050664;28;20453;-70
2021/07/22 04:45:16;;;;;;;36.40;34.20;;;17.30;80.80;;;;;;5033688;28;20490;-70
2021/07/22 04:47:44;;;;;;;37.60;35.27;;;17.40;80.30;;;;;;5038739;28;20466;-70
2021/07/22 04:50:12;;;;;;;33.40;31.30;;;17.40;80.20;;;;;;5045348;28;21003;-69
2021/07/22 04:52:39;;;;;;;35.03;32.83;;;17.40;80.50;;;;;;5048654;28;20459;-69
2021/07/22 04:55:06;;;;;;;36.00;33.63;;;17.40;80.40;;;;;;5049612;28;20542;-70
2021/07/22 04:57:33;;;;;;;35.20;33.00;;;17.50;80.10;;;;;;5047637;28;20467;-69
2021/07/22 05:00:00;;;;;;;32.50;30.30;;;17.70;79.80;;;;;;5038593;28;20575;-69
2021/07/22 05:02:27;;;;;;;37.97;35.53;;;18.00;79.10;;;;;;5048126;28;20563;-71
2021/07/22 05:04:55;;;;;;;34.53;32.33;;;18.20;78.30;;;;;;5047577;28;20451;-71
2021/07/22 05:07:22;;;;;;;36.63;34.37;;;18.20;77.80;;;;;;5051118;28;20461;-69
2021/07/22 05:09:49;;;;;;;35.43;33.17;;;18.20;77.60;;;;;;5047916;28;20479;-71
2021/07/22 05:12:16;;;;;;;33.80;31.50;;;18.10;77.80;;;;;;5044419;28;20970;-70
2021/07/22 05:14:43;;;;;;;35.73;33.43;;;18.20;77.90;;;;;;5045488;28;20466;-71
2021/07/22 05:17:10;;;;;;;34.47;32.27;;;18.20;77.80;;;;;;5045550;28;20470;-71
2021/07/22 05:19:37;;;;;;;33.67;31.57;;;18.50;77.40;;;;;;5044992;28;20455;-72
2021/07/22 05:22:06;;;;;;;34.90;32.30;;;18.70;76.80;;;;;;5038922;28;20466;-73
2021/07/22 05:24:33;;;;;;;34.10;31.83;;;18.80;76.50;;;;;;5042021;28;20459;-73
2021/07/22 05:26:59;;;;;;;35.40;32.90;;;18.80;76.30;;;;;;5046223;28;20502;-71
2021/07/22 05:29:27;;;;;;;38.33;35.77;;;18.90;76.00;;;;;;5045576;28;20506;-70
2021/07/22 05:31:54;;;;;;;39.07;36.30;;;19.10;75.80;;;;;;5041396;28;20477;-69
2021/07/22 05:34:21;;;;;;;33.23;31.10;;;19.20;74.90;;;;;;5046511;28;20550;-69
2021/07/22 05:36:48;;;;;;;36.80;34.27;;;19.20;75.00;;;;;;5048236;28;20481;-71
2021/07/22 05:39:16;;;;;;;37.40;34.90;;;19.20;75.20;;;;;;5046231;28;20459;-72
2021/07/22 05:41:43;;;;;;;35.90;33.50;;;19.30;74.90;;;;;;5049101;28;20494;-71
2021/07/22 05:44:10;;;;;;;35.63;33.23;;;19.30;74.90;;;;;;5046738;28;20546;-70
2021/07/22 05:46:37;;;;;;;38.03;35.50;;;19.40;74.80;;;;;;5053016;28;21051;-71
2021/07/22 05:49:04;;;;;;;34.75;32.38;;;19.60;74.50;;;;;;5047327;28;20481;-72
2021/07/22 05:51:32;;;;;;;38.23;35.63;;;19.90;73.80;;;;;;5049070;28;20290;-71
2021/07/22 05:53:59;;;;;;;37.33;35.10;;;20.10;73.60;;;;;;5048559;28;20455;-72
2021/07/22 05:56:28;;;;;;;38.88;36.05;;;20.20;72.80;;;;;;5050760;28;20464;-73
2021/07/22 05:58:55;;;;;;;41.00;37.80;;;20.30;72.80;;;;;;5048423;28;20666;-72
2021/07/22 06:01:22;;;;;;;37.60;34.97;;;20.30;72.80;;;;;;5036931;28;20486;-72
2021/07/22 06:03:49;;;;;;;38.43;35.73;;;20.30;72.90;;;;;;5040072;28;20465;-72
2021/07/22 06:06:15;;;;;;;41.80;36.77;;;20.40;72.70;;;;;;5030068;28;20989;-75
2021/07/22 06:08:42;;;;;;;42.27;37.87;;;20.50;72.90;;;;;;5038010;28;20474;-79
2021/07/22 06:11:12;;;;;;;43.20;39.20;;;20.70;72.40;;;;;;5044373;28;20451;-73
2021/07/22 06:13:40;;;;;;;39.33;36.67;;;20.80;72.20;;;;;;5048259;28;20465;-73
2021/07/22 06:16:11;;;;;;;39.73;36.50;;;20.90;71.60;;;;;;5052014;28;20478;-73
2021/07/22 06:18:38;;;;;;;41.60;38.30;;;20.90;70.50;;;;;;5043592;28;20461;-77
2021/07/22 06:21:05;;;;;;;41.10;38.40;;;20.90;71.00;;;;;;5051440;28;20458;-75
2021/07/22 06:23:32;;;;;;;41.10;38.10;;;21.00;70.80;;;;;;5046176;28;20466;-72
2021/07/22 06:26:00;;;;;;;40.67;37.80;;;21.10;69.80;;;;;;5032397;28;20502;-72
2021/07/22 06:28:28;;;;;;;40.93;37.40;;;21.10;69.80;;;;;;5047364;28;20446;-72
2021/07/22 06:30:56;;;;;;;40.60;37.40;;;21.20;70.00;;;;;;5049410;28;20466;-72
2021/07/22 06:33:24;;;;;;;42.00;38.30;;;21.30;70.40;;;;;;5043296;28;20497;-72
2021/07/22 06:35:51;;;;;;;40.53;37.20;;;21.60;68.60;;;;;;5051826;28;20563;-73
2021/07/22 06:38:19;;;;;;;39.43;36.57;;;21.70;67.90;;;;;;5044023;28;20555;-72
2021/07/22 06:40:46;;;;;;;43.17;39.83;;;21.80;67.60;;;;;;5045964;28;20495;-72
2021/07/22 06:43:13;;;;;;;40.03;37.00;;;21.80;67.80;;;;;;5050137;28;20463;-72
2021/07/22 06:45:42;;;;;;;39.57;36.20;;;21.90;67.70;;;;;;5050865;28;20478;-73
2021/07/22 06:48:10;;;;;;;40.83;38.03;;;22.10;67.00;;;;;;5041441;28;20461;-72
2021/07/22 06:50:37;;;;;;;38.80;35.90;;;22.20;66.40;;;;;;5046925;28;20899;-72
2021/07/22 06:53:05;;;;;;;39.40;36.77;;;22.40;66.00;;;;;;5047261;28;20466;-71
2021/07/22 06:55:32;;;;;;;42.20;38.80;;;22.50;65.60;;;;;;5051953;28;20477;-74
2021/07/22 06:58:04;;;;;;;36.93;34.33;;;22.50;64.90;;;;;;5041135;28;20932;-72
2021/07/22 07:00:31;;;;;;;39.27;36.40;;;22.60;65.20;;;;;;5051189;28;20590;-71
2021/07/22 07:03:01;;;;;;;38.53;35.73;;;22.70;65.40;;;;;;5049153;28;20489;-70
2021/07/22 07:05:29;;;;;;;41.20;37.97;;;22.70;64.90;;;;;;5051915;28;20562;-71
2021/07/22 07:07:56;;;;;;;39.40;36.63;;;22.60;64.80;;;;;;5046200;28;20459;-71
2021/07/22 07:10:23;;;;;;;41.97;38.67;;;22.60;64.70;;;;;;5044876;28;20481;-73
2021/07/22 07:12:51;;;;;;;41.27;38.53;;;22.50;65.00;;;;;;5041435;28;20466;-75
2021/07/22 07:15:18;;;;;;;40.63;37.83;;;22.60;65.00;;;;;;5045242;28;20554;-72
2021/07/22 07:17:46;;;;;;;40.17;37.13;;;22.60;64.70;;;;;;5041165;28;20940;-72
2021/07/22 07:20:14;;;;;;;39.93;37.23;;;22.60;65.20;;;;;;5048833;28;20451;-72
2021/07/22 07:22:42;;;;;;;42.17;38.90;;;22.80;64.80;;;;;;5050922;28;20459;-72
2021/07/22 07:25:11;;;;;;;39.87;37.10;;;22.90;63.90;;;;;;5042470;28;20512;-72
2021/07/22 07:27:39;;;;;;;43.67;40.17;;;23.00;63.30;;;;;;5048178;28;20478;-72
2021/07/22 07:30:08;;;;;;;42.03;38.70;;;22.90;63.00;;;;;;5045608;28;20574;-71
2021/07/22 07:32:36;;;;;;;40.53;37.50;;;22.90;63.70;;;;;;5041544;28;20462;-71
2021/07/22 07:35:03;;;;;;;43.27;39.87;;;23.00;63.70;;;;;;5049548;28;20486;-71
2021/07/22 07:37:30;;;;;;;42.30;38.90;;;23.00;63.80;;;;;;5038189;28;20821;-71
2021/07/22 07:39:59;;;;;;;44.53;41.30;;;23.00;63.20;;;;;;5050090;28;20456;-72
2021/07/22 07:42:27;;;;;;;40.50;37.60;;;23.00;63.80;;;;;;5050508;28;21027;-72
2021/07/22 07:44:54;;;;;;;42.97;39.90;;;22.90;64.20;;;;;;5051002;28;20537;-73
2021/07/22 07:47:21;;;;;;;44.13;40.90;;;23.00;64.20;;;;;;5041497;28;21108;-72
2021/07/22 07:49:49;;;;;;;42.90;39.33;;;23.10;64.50;;;;;;5048005;28;20510;-73
2021/07/22 07:52:16;;;;;;;39.40;36.40;;;23.20;63.30;;;;;;5037257;28;20574;-73
2021/07/22 07:54:43;;;;;;;38.87;35.87;;;22.90;63.90;;;;;;5049190;28;20474;-73
2021/07/22 07:57:11;;;;;;;38.83;35.83;;;22.90;64.50;;;;;;5040317;28;20471;-72
2021/07/22 07:59:38;;;;;;;43.80;40.07;;;22.90;64.90;;;;;;5048202;28;20466;-72
2021/07/22 08:02:05;;;;;;;46.77;43.07;;;23.00;64.40;;;;;;5045929;28;20458;-72
2021/07/22 08:04:32;;;;;;;42.27;39.37;;;23.10;64.30;;;;;;5045835;28;20984;-72
2021/07/22 08:06:58;;;;;;;41.23;38.10;;;23.20;64.60;;;;;;5049579;28;20562;-72
2021/07/22 08:09:25;;;;;;;41.77;38.97;;;23.30;64.50;;;;;;5046979;28;20578;-72
2021/07/22 08:11:52;;;;;;;40.00;36.90;;;23.30;64.40;;;;;;5047268;28;20455;-72
2021/07/22 08:14:21;;;;;;;41.67;38.77;;;23.40;64.30;;;;;;5037991;28;20503;-73
2021/07/22 08:16:49;;;;;;;43.20;39.80;;;23.60;63.40;;;;;;5045375;28;20482;-72
2021/07/22 08:19:16;;;;;;;41.90;38.30;;;23.70;62.00;;;;;;5047374;28;20459;-72
2021/07/22 08:21:43;;;;;;;43.90;40.77;;;23.40;62.70;;;;;;5049445;28;20465;-73
2021/07/22 08:24:10;;;;;;;42.13;39.03;;;23.50;62.80;;;;;;5045578;28;20467;-72
2021/07/22 08:26:37;;;;;;;42.43;39.20;;;23.50;63.50;;;;;;5048639;28;20509;-72
2021/07/22 08:29:04;;;;;;;40.80;37.70;;;23.70;63.30;;;;;;5049210;28;20562;-73
2021/07/22 08:31:32;;;;;;;42.77;39.40;;;23.80;61.80;;;;;;5049685;28;20457;-73
2021/07/22 08:33:59;;;;;;;39.70;36.73;;;23.80;61.60;;;;;;5046981;28;20469;-72
2021/07/22 08:36:26;;;;;;;41.63;38.60;;;23.90;61.40;;;;;;5045059;28;20483;-72
2021/07/22 08:38:54;;;;;;;39.43;36.67;;;24.10;60.80;;;;;;5049228;28;20458;-73
2021/07/22 08:41:21;;;;;;;40.90;37.70;;;24.10;60.80;;;;;;5044516;28;20459;-72
2021/07/22 08:43:52;;;;;;;40.27;37.37;;;24.30;60.20;;;;;;5043289;28;20459;-72
2021/07/22 08:46:19;;;;;;;38.70;35.80;;;24.40;58.20;;;;;;5047274;28;20562;-71
2021/07/22 08:48:48;;;;;;;39.33;36.40;;;24.40;58.20;;;;;;5043062;28;20467;-72
2021/07/22 08:51:15;;;;;;;38.83;36.23;;;24.40;58.60;;;;;;5045120;28;20475;-72
2021/07/22 08:53:42;;;;;;;40.20;37.50;;;24.40;59.10;;;;;;5046690;28;20466;-72
2021/07/22 08:56:10;;;;;;;38.73;36.10;;;24.50;58.50;;;;;;5044469;28;20972;-72
2021/07/22 08:58:40;;;;;;;41.80;39.00;;;24.60;58.10;;;;;;5048525;28;20463;-71
2021/07/22 09:01:10;;;;;;;38.37;35.87;;;24.60;58.30;;;;;;5048041;28;20456;-72
2021/07/22 09:03:37;;;;;;;39.30;36.43;;;24.60;58.60;;;;;;5044885;28;20554;-71
2021/07/22 09:06:14;;;;;;;41.40;38.43;;;24.50;59.10;;;;;;5043257;28;20555;-72
2021/07/22 09:08:42;;;;;;;36.30;33.90;;;24.30;59.10;;;;;;5046989;28;20469;-72
2021/07/22 09:11:11;;;;;;;37.97;35.37;;;24.30;59.10;;;;;;5036094;28;20471;-73
2021/07/22 09:13:38;;;;;;;38.53;35.70;;;24.50;58.60;;;;;;5049151;28;20467;-76
2021/07/22 09:16:05;;;;;;;38.33;35.60;;;24.70;58.60;;;;;;5038624;28;20478;-75
2021/07/22 09:18:35;;;;;;;37.70;35.07;;;24.80;57.50;;;;;;5036483;28;20464;-74
2021/07/22 09:21:20;;;;;;;42.33;39.23;;;24.70;58.30;;;;;;5033457;28;20459;-77
2021/07/22 09:24:04;;;;;;;41.07;38.13;;;24.80;57.90;;;;;;5043853;28;20955;-74
2021/07/22 09:26:32;;;;;;;39.50;37.00;;;25.00;57.70;;;;;;5048976;28;20481;-74
2021/07/22 09:29:04;;;;;;;37.87;35.40;;;25.20;56.00;;;;;;5046557;28;21144;-74
2021/07/22 09:31:32;;;;;;;39.97;37.30;;;25.30;55.50;;;;;;5043385;28;20483;-74
2021/07/22 09:33:59;;;;;;;38.23;35.63;;;25.20;55.40;;;;;;5045703;28;20547;-74
2021/07/22 09:36:34;;;;;;;38.37;35.87;;;25.20;55.30;;;;;;5045573;28;20475;-74
2021/07/22 09:39:18;;;;;;;39.47;36.77;;;25.20;54.40;;;;;;5046633;28;20458;-74
2021/07/22 09:41:46;;;;;;;38.53;36.03;;;25.30;55.20;;;;;;5047830;28;20451;-73
2021/07/22 09:44:31;;;;;;;36.70;34.20;;;25.50;55.10;;;;;;5046078;28;20534;-73
2021/07/22 09:46:59;;;;;;;39.97;37.17;;;25.50;54.50;;;;;;5031663;28;21107;-73
2021/07/22 09:49:35;;;;;;;40.93;38.30;;;25.60;53.30;;;;;;5043351;28;20464;-73
2021/07/22 09:52:04;;;;;;;36.77;34.33;;;25.70;52.50;;;;;;5045166;28;20545;-74
2021/07/22 09:54:34;;;;;;;39.90;37.50;;;25.60;53.20;;;;;;5040612;28;20452;-75
2021/07/22 09:57:03;;;;;;;38.47;35.97;;;25.50;54.10;;;;;;5030202;28;20471;-76
2021/07/22 09:59:31;;;;;;;40.27;37.33;;;25.60;53.50;;;;;;5043691;28;20929;-76
2021/07/22 10:02:05;;;;;;;37.10;34.70;;;25.60;52.40;;;;;;5048042;28;20458;-78
2021/07/22 10:04:33;;;;;;;36.90;34.40;;;25.60;52.50;;;;;;5044042;28;20459;-78
2021/07/22 10:07:03;;;;;;;37.17;34.83;;;25.70;52.50;;;;;;5037140;28;21038;-78
2021/07/22 10:09:35;;;;;;;39.80;37.30;;;25.70;52.00;;;;;;5047805;28;20460;-78
2021/07/22 10:12:03;;;;;;;36.13;33.93;;;25.80;52.00;;;;;;5048232;28;20860;-78
2021/07/22 10:14:33;;;;;;;38.60;35.77;;;25.50;52.80;;;;;;5048583;28;20455;-78
2021/07/22 10:17:03;;;;;;;39.10;36.60;;;25.60;52.70;;;;;;5048940;28;20490;-79
2021/07/22 10:19:32;;;;;;;37.83;35.00;;;25.70;53.40;;;;;;5049345;28;20461;-78
2021/07/22 10:22:02;;;;;;;38.13;35.60;;;25.90;52.80;;;;;;5050888;28;20461;-79
2021/07/22 10:24:30;;;;;;;38.60;36.10;;;26.10;53.10;;;;;;5046777;28;20463;-77
2021/07/22 10:26:59;;;;;;;37.20;34.77;;;26.20;53.20;;;;;;5048731;28;20501;-78
2021/07/22 10:29:28;;;;;;;38.17;35.57;;;26.40;51.90;;;;;;5046922;28;20461;-77
2021/07/22 10:31:56;;;;;;;41.23;38.57;;;26.40;52.80;;;;;;5037395;28;20475;-77
2021/07/22 10:34:23;;;;;;;38.60;35.90;;;26.50;52.40;;;;;;5041520;28;20542;-76
2021/07/22 10:36:51;;;;;;;41.63;38.90;;;26.50;53.10;;;;;;5048255;28;20479;-73
2021/07/22 10:39:38;;;;;;;39.30;36.23;;;26.60;53.00;;;;;;5046447;28;20358;-75
2021/07/22 10:42:06;;;;;;;38.93;36.43;;;26.60;53.90;;;;;;5035749;28;20462;-75
2021/07/22 10:44:33;;;;;;;40.57;37.90;;;26.60;53.40;;;;;;5043650;28;20792;-75
2021/07/22 10:47:06;;;;;;;38.70;36.30;;;26.50;53.90;;;;;;5039133;28;20479;-75
2021/07/22 10:49:41;;;;;;;40.63;38.03;;;26.40;53.70;;;;;;5045306;28;20455;-75
2021/07/22 10:52:09;;;;;;;41.13;38.43;;;26.40;54.00;;;;;;5048323;28;20478;-75
2021/07/22 10:54:49;;;;;;;40.03;37.43;;;26.40;53.30;;;;;;5045087;28;20455;-75
2021/07/22 10:57:42;;;;;;;38.60;36.07;;;26.30;53.50;;;;;;5044230;28;20475;-74
2021/07/22 11:00:10;;;;;;;39.20;36.70;;;26.30;53.50;;;;;;5044333;28;20450;-76
2021/07/22 11:02:44;;;;;;;39.57;37.17;;;26.30;54.00;;;;;;5038834;28;20996;-75
2021/07/22 11:05:13;;;;;;;41.30;38.73;;;26.40;53.90;;;;;;5051829;28;20816;-75
2021/07/22 11:07:40;;;;;;;38.47;36.00;;;26.50;53.60;;;;;;5051056;28;20462;-73
2021/07/22 11:10:08;;;;;;;40.63;37.73;;;26.50;53.60;;;;;;5048605;28;20455;-74
2021/07/22 11:12:48;;;;;;;41.23;38.40;;;26.80;53.00;;;;;;5048633;28;20494;-72
2021/07/22 11:16:01;;;;;;;42.73;40.03;;;26.90;52.00;;;;;;5044130;28;20471;-73
2021/07/22 11:18:56;;;;;;;41.83;39.07;;;26.90;52.30;;;;;;5044903;28;20478;-73
2021/07/22 11:21:27;;;;;;;43.03;40.13;;;26.90;53.10;;;;;;5046558;28;20503;-73
2021/07/22 11:23:59;;;;;;;42.43;39.43;;;26.90;53.00;;;;;;5048363;28;20455;-72
2021/07/22 11:26:28;;;;;;;38.73;36.30;;;27.00;52.80;;;;;;5048319;28;20505;-72
2021/07/22 11:28:56;;;;;;;42.80;39.70;;;26.90;53.20;;;;;;5050254;28;20483;-73
2021/07/22 11:31:23;;;;;;;42.40;39.50;;;26.80;53.50;;;;;;5050960;28;20494;-74
2021/07/22 11:33:50;;;;;;;42.50;39.57;;;26.70;53.20;;;;;;5046616;28;20465;-74
2021/07/22 11:36:20;;;;;;;42.50;39.60;;;26.70;53.20;;;;;;5051023;28;20477;-73
2021/07/22 11:38:52;;;;;;;43.27;40.07;;;27.00;52.80;;;;;;5047287;28;20538;-74
2021/07/22 11:41:21;;;;;;;41.67;38.43;;;26.90;52.10;;;;;;5051345;28;20451;-74
2021/07/22 11:43:49;;;;;;;43.30;40.13;;;26.90;52.60;;;;;;5050875;28;20465;-75
2021/07/22 11:46:33;;;;;;;43.93;40.90;;;26.70;52.80;;;;;;5042697;28;20574;-76
2021/07/22 11:49:06;;;;;;;42.10;39.20;;;26.60;53.10;;;;;;5047276;28;20463;-75
2021/07/22 11:51:33;;;;;;;41.53;38.87;;;26.70;52.60;;;;;;5050518;28;20490;-76
2021/07/22 11:54:00;;;;;;;40.83;37.73;;;26.70;52.90;;;;;;5050544;28;20485;-76
2021/07/22 11:56:31;;;;;;;41.57;38.63;;;27.00;52.90;;;;;;5049608;28;20482;-76
2021/07/22 11:58:58;;;;;;;39.43;36.80;;;27.20;52.10;;;;;;5049676;28;21012;-76
2021/07/22 12:01:27;;;;;;;40.67;37.80;;;27.40;51.30;;;;;;5050517;28;20463;-76
2021/07/22 12:03:55;;;;;;;43.60;40.70;;;27.60;51.20;;;;;;5049508;28;20469;-74
2021/07/22 12:06:25;;;;;;;39.43;36.83;;;27.80;51.00;;;;;;5046305;28;20510;-73
2021/07/22 12:09:02;;;;;;;41.00;38.40;;;27.70;51.00;;;;;;5048973;28;20461;-73
2021/07/22 12:11:29;;;;;;;44.67;41.40;;;27.80;51.70;;;;;;5049922;28;21218;-74
2021/07/22 12:13:56;;;;;;;40.37;37.70;;;27.80;52.40;;;;;;5049153;28;20463;-71
2021/07/22 12:16:25;;;;;;;45.60;42.90;;;27.90;51.50;;;;;;5047889;28;20574;-73
2021/07/22 12:18:55;;;;;;;40.43;37.63;;;28.00;51.30;;;;;;5039592;28;20455;-73
2021/07/22 12:21:24;;;;;;;40.30;37.60;;;28.00;51.30;;;;;;5047966;28;20465;-73
2021/07/22 12:23:51;;;;;;;44.33;41.60;;;28.10;50.90;;;;;;5049555;28;20565;-73
2021/07/22 12:26:19;;;;;;;39.67;36.87;;;28.10;49.90;;;;;;5045526;28;20997;-74
2021/07/22 12:28:47;;;;;;;43.47;39.87;;;28.00;50.50;;;;;;5038262;28;20469;-75
2021/07/22 12:31:15;;;;;;;44.93;41.43;;;28.00;50.40;;;;;;5048258;28;20487;-73
2021/07/22 12:33:43;;;;;;;43.17;40.20;;;28.20;50.40;;;;;;5045979;28;21083;-74